createdAt,value
2023-02-15T00:01:52.142Z,25.00
2023-02-15T00:04:22.944Z,25.90
2023-02-15T00:06:52.846Z,18.70
2023-02-15T00:09:22.434Z,21.00
2023-02-15T00:11:52.170Z,24.00
2023-02-15T00:14:22.406Z,25.10
2023-02-15T00:16:55.438Z,20.30
2023-02-15T00:19:28.075Z,23.80
2023-02-15T00:21:57.677Z,18.90
2023-02-15T00:24:27.284Z,19.70
2023-02-15T00:26:56.545Z,24.60
2023-02-15T00:29:26.279Z,21.10
2023-02-15T00:31:55.538Z,19.40
2023-02-15T00:34:27.755Z,23.20
2023-02-15T00:36:59.203Z,25.30
2023-02-15T00:39:29.472Z,25.30
2023-02-15T00:41:58.725Z,19.70
2023-02-15T00:44:28.028Z,17.40
2023-02-15T00:46:59.070Z,27.30
2023-02-15T00:49:28.419Z,26.60
2023-02-15T00:51:57.695Z,19.10
2023-02-15T00:54:29.904Z,24.20
2023-02-15T00:56:59.574Z,19.50
2023-02-15T00:59:28.981Z,21.20
2023-02-15T01:01:58.580Z,22.60
2023-02-15T01:04:27.905Z,29.20
2023-02-15T01:06:59.751Z,22.40
2023-02-15T01:09:30.412Z,19.70
2023-02-15T01:12:00.649Z,25.70
2023-02-15T01:14:29.769Z,26.60
2023-02-15T01:16:58.865Z,23.80
2023-02-15T01:19:30.470Z,30.00
2023-02-15T01:21:59.676Z,26.70
2023-02-15T01:24:29.380Z,24.90
2023-02-15T01:26:58.715Z,25.90
2023-02-15T01:29:29.714Z,22.00
2023-02-15T01:31:59.088Z,22.50
2023-02-15T01:34:28.449Z,24.10
2023-02-15T01:36:59.813Z,23.50
2023-02-15T01:39:29.289Z,27.10
2023-02-15T01:41:59.536Z,30.20
2023-02-15T01:44:51.066Z,25.90
2023-02-15T01:47:24.542Z,22.60
2023-02-15T01:50:01.402Z,24.60
2023-02-15T01:52:31.269Z,31.90
2023-02-15T01:55:00.640Z,26.60
2023-02-15T01:57:30.069Z,25.40
2023-02-15T02:00:01.444Z,28.20
2023-02-15T02:02:43.158Z,24.40
2023-02-15T02:05:12.849Z,27.90
2023-02-15T02:07:45.101Z,29.50
2023-02-15T02:10:18.608Z,25.60
2023-02-15T02:12:50.031Z,29.50
2023-02-15T02:15:19.923Z,25.60
2023-02-15T02:17:58.469Z,25.60
2023-02-15T02:20:57.042Z,32.30
2023-02-15T02:23:45.279Z,30.30
2023-02-15T02:26:56.368Z,28.40
2023-02-15T02:29:41.234Z,35.60
2023-02-15T02:32:45.339Z,31.40
2023-02-15T02:35:20.272Z,28.60
2023-02-15T02:37:55.790Z,25.90
2023-02-15T02:40:29.846Z,30.80
2023-02-15T02:43:03.139Z,33.30
2023-02-15T02:45:44.627Z,37.60
2023-02-15T02:48:16.592Z,33.00
2023-02-15T02:50:46.091Z,30.80
2023-02-15T02:53:15.370Z,30.90
2023-02-15T02:55:48.203Z,30.50
2023-02-15T02:58:23.686Z,28.60
2023-02-15T03:00:55.852Z,28.30
2023-02-15T03:03:28.677Z,26.60
2023-02-15T03:06:00.740Z,29.50
2023-02-15T03:08:37.531Z,34.80
2023-02-15T03:11:07.526Z,30.00
2023-02-15T03:13:41.434Z,29.40
2023-02-15T03:16:27.293Z,27.60
2023-02-15T03:18:58.702Z,30.10
2023-02-15T03:21:34.297Z,27.00
2023-02-15T03:24:08.813Z,31.20
2023-02-15T03:26:39.758Z,30.00
2023-02-15T03:29:12.489Z,28.20
2023-02-15T03:31:45.107Z,25.40
2023-02-15T03:34:16.095Z,27.90
2023-02-15T03:36:50.095Z,30.50
2023-02-15T03:39:26.402Z,32.50
2023-02-15T03:42:01.655Z,34.70
2023-02-15T03:44:32.386Z,30.50
2023-02-15T03:47:07.267Z,30.20
2023-02-15T03:49:42.133Z,30.00
2023-02-15T03:54:47.107Z,36.30
2023-02-15T03:57:38.514Z,30.80
2023-02-15T04:00:33.512Z,33.20
2023-02-15T04:03:23.906Z,29.60
2023-02-15T04:05:54.351Z,31.80
2023-02-15T04:08:44.133Z,34.20
2023-02-15T04:11:13.715Z,34.70
2023-02-15T04:13:43.545Z,36.90
2023-02-15T04:16:12.859Z,33.30
2023-02-15T04:19:01.946Z,34.60
2023-02-15T04:21:50.650Z,32.30
2023-02-15T04:24:38.413Z,34.00
2023-02-15T04:27:08.108Z,34.00
2023-02-15T04:29:39.749Z,33.10
2023-02-15T04:32:09.331Z,33.20
2023-02-15T04:34:38.672Z,32.40
2023-02-15T04:37:08.087Z,35.40
2023-02-15T04:39:37.204Z,40.50
2023-02-15T04:42:07.096Z,38.50
2023-02-15T04:44:36.807Z,34.90
2023-02-15T04:47:06.090Z,42.90
2023-02-15T04:49:35.391Z,37.50
2023-02-15T04:52:05.439Z,36.40
2023-02-15T04:54:34.711Z,31.90
2023-02-15T04:57:04.018Z,34.60
2023-02-15T04:59:33.560Z,37.40
2023-02-15T05:02:02.902Z,33.70
2023-02-15T05:04:32.782Z,34.60
2023-02-15T05:07:02.234Z,33.70
2023-02-15T05:09:31.590Z,35.10
2023-02-15T05:12:01.052Z,33.80
2023-02-15T05:14:30.568Z,38.10
2023-02-15T05:17:03.781Z,33.50
2023-02-15T05:19:34.106Z,35.60
2023-02-15T05:22:03.395Z,35.80
2023-02-15T05:24:51.351Z,31.40
2023-02-15T05:28:05.156Z,31.50
2023-02-15T05:30:35.991Z,27.90
2023-02-15T05:33:05.818Z,36.90
2023-02-15T05:35:38.596Z,45.10
2023-02-15T05:38:10.741Z,32.80
2023-02-15T05:40:40.195Z,33.70
2023-02-15T05:43:09.956Z,32.60
2023-02-15T05:45:39.388Z,32.30
2023-02-15T05:48:08.548Z,33.20
2023-02-15T05:50:40.681Z,35.90
2023-02-15T05:53:11.457Z,32.30
2023-02-15T05:55:43.905Z,31.70
2023-02-15T05:58:13.414Z,38.90
2023-02-15T06:00:42.919Z,32.00
2023-02-15T06:03:12.174Z,40.10
2023-02-15T06:05:42.431Z,38.40
2023-02-15T06:08:12.365Z,36.30
2023-02-15T06:10:41.490Z,33.10
2023-02-15T06:13:11.432Z,44.90
2023-02-15T06:15:41.346Z,32.20
2023-02-15T06:18:11.351Z,35.70
2023-02-15T06:20:40.915Z,39.10
2023-02-15T06:23:10.365Z,29.90
2023-02-15T06:25:40.115Z,36.10
2023-02-15T06:28:11.143Z,32.20
2023-02-15T06:30:40.928Z,35.80
2023-02-15T06:33:10.584Z,36.50
2023-02-15T06:35:40.155Z,39.90
2023-02-15T06:38:12.385Z,31.40
2023-02-15T06:40:42.258Z,31.70
2023-02-15T06:43:11.493Z,34.50
2023-02-15T06:45:41.105Z,35.50
2023-02-15T06:48:11.682Z,38.10
2023-02-15T06:50:41.446Z,34.30
2023-02-15T06:53:10.701Z,27.70
2023-02-15T06:55:40.545Z,27.90
2023-02-15T06:58:11.910Z,21.20
2023-02-15T07:00:41.367Z,27.60
2023-02-15T07:03:15.098Z,24.30
2023-02-15T07:06:10.979Z,30.00
2023-02-15T07:08:40.863Z,31.10
2023-02-15T07:11:29.511Z,26.50
2023-02-15T07:14:23.594Z,27.60
2023-02-15T07:16:53.676Z,25.70
2023-02-15T07:19:23.046Z,32.00
2023-02-15T07:21:52.923Z,24.00
2023-02-15T07:24:22.308Z,30.20
2023-02-15T07:26:51.671Z,25.60
2023-02-15T07:29:21.446Z,26.40
2023-02-15T07:31:53.810Z,29.90
2023-02-15T07:34:23.553Z,28.80
2023-02-15T07:36:54.251Z,26.10
2023-02-15T07:39:23.638Z,29.30
2023-02-15T07:41:53.321Z,22.70
2023-02-15T07:44:22.871Z,31.00
2023-02-15T07:46:52.978Z,28.40
2023-02-15T07:49:22.626Z,30.50
2023-02-15T07:51:56.724Z,26.10
2023-02-15T07:54:26.089Z,27.20
2023-02-15T07:56:55.777Z,29.40
2023-02-15T07:59:25.160Z,32.10
2023-02-15T08:01:56.605Z,41.00
2023-02-15T08:04:26.082Z,37.70
2023-02-15T08:06:55.815Z,30.20
2023-02-15T08:09:25.358Z,39.70
2023-02-15T08:11:55.158Z,31.60
2023-02-15T08:14:25.952Z,38.40
2023-02-15T08:16:56.738Z,30.60
2023-02-15T08:19:26.804Z,30.20
2023-02-15T08:21:57.728Z,37.60
2023-02-15T08:24:27.972Z,33.00
2023-02-15T08:26:57.377Z,30.60
2023-02-15T08:29:28.147Z,22.60
2023-02-15T08:32:02.459Z,28.80
2023-02-15T08:34:34.099Z,26.00
2023-02-15T08:37:03.568Z,33.40
2023-02-15T08:39:32.885Z,29.70
2023-02-15T08:42:02.181Z,25.80
2023-02-15T08:44:31.410Z,27.50
2023-02-15T08:47:03.930Z,29.40
2023-02-15T08:49:33.316Z,27.80
2023-02-15T08:52:02.899Z,35.50
2023-02-15T08:54:32.525Z,28.30
2023-02-15T08:57:01.838Z,28.90
2023-02-15T08:59:30.962Z,32.10
2023-02-15T09:02:00.068Z,49.30
2023-02-15T09:04:29.475Z,47.70
2023-02-15T09:06:58.639Z,22.60
2023-02-15T09:09:28.011Z,31.10
2023-02-15T09:11:59.482Z,30.20
2023-02-15T09:14:29.425Z,23.70
2023-02-15T09:16:58.930Z,24.90
2023-02-15T09:19:28.559Z,29.80
2023-02-15T09:22:01.045Z,26.40
2023-02-15T09:24:34.825Z,26.20
2023-02-15T09:27:04.269Z,23.90
2023-02-15T09:29:33.571Z,27.50
2023-02-15T09:32:02.949Z,23.90
2023-02-15T09:34:34.797Z,24.70
2023-02-15T09:37:06.056Z,25.60
2023-02-15T09:39:39.467Z,26.90
2023-02-15T09:42:47.139Z,24.60
2023-02-15T09:45:27.960Z,24.10
2023-02-15T09:48:30.106Z,24.50
2023-02-15T09:51:10.308Z,22.10
2023-02-15T09:53:56.178Z,31.40
2023-02-15T09:56:37.342Z,24.90
2023-02-15T09:59:12.553Z,27.80
2023-02-15T10:01:51.307Z,22.30
2023-02-15T10:04:34.292Z,18.30
2023-02-15T10:07:12.361Z,19.80
2023-02-15T10:09:55.383Z,27.20
2023-02-15T10:12:41.326Z,17.90
2023-02-15T10:15:32.130Z,17.70
2023-02-15T10:18:22.414Z,23.60
2023-02-15T10:20:59.095Z,20.40
2023-02-15T10:23:42.756Z,16.10
2023-02-15T10:26:16.338Z,18.70
2023-02-15T10:28:49.514Z,16.70
2023-02-15T10:31:25.338Z,15.90
2023-02-15T10:34:20.738Z,14.20
2023-02-15T10:37:11.845Z,15.40
2023-02-15T10:39:47.683Z,12.30
2023-02-15T10:42:26.887Z,16.10
2023-02-15T10:45:14.533Z,13.20
2023-02-15T10:48:00.471Z,15.70
2023-02-15T10:50:37.766Z,19.10
2023-02-15T10:53:16.962Z,19.60
2023-02-15T10:55:53.528Z,13.40
2023-02-15T10:58:31.339Z,14.80
2023-02-15T11:01:08.554Z,12.50
2023-02-15T11:03:50.899Z,12.00
2023-02-15T11:06:21.786Z,21.30
2023-02-15T11:08:53.738Z,15.40
2023-02-15T11:11:25.037Z,11.50
2023-02-15T11:14:21.521Z,11.30
2023-02-15T11:16:53.462Z,12.30
2023-02-15T11:19:24.174Z,19.60
2023-02-15T11:21:56.307Z,15.90
2023-02-15T11:24:29.157Z,9.60
2023-02-15T11:27:03.856Z,8.60
2023-02-15T11:29:35.875Z,15.40
2023-02-15T11:35:03.796Z,6.30
2023-02-15T11:37:37.204Z,9.10
2023-02-15T11:40:20.530Z,7.00
2023-02-15T11:42:50.785Z,6.50
2023-02-15T11:45:26.420Z,7.70
2023-02-15T11:47:56.692Z,8.70
2023-02-15T11:50:50.053Z,7.60
2023-02-15T11:53:21.593Z,5.60
2023-02-15T11:55:52.022Z,12.60
2023-02-15T11:58:29.467Z,6.90
2023-02-15T12:01:07.412Z,4.30
2023-02-15T12:03:45.438Z,6.70
2023-02-15T12:06:20.045Z,6.30
2023-02-15T12:08:52.815Z,4.60
2023-02-15T12:11:26.902Z,6.10
2023-02-15T12:13:58.041Z,5.20
2023-02-15T12:16:28.406Z,4.40
2023-02-15T12:18:59.720Z,4.70
2023-02-15T12:21:31.886Z,4.80
2023-02-15T12:24:15.189Z,4.20
2023-02-15T12:26:50.247Z,3.50
2023-02-15T12:29:22.526Z,3.30
2023-02-15T12:31:53.242Z,6.30
2023-02-15T12:34:26.414Z,6.70
2023-02-15T12:36:58.256Z,4.50
2023-02-15T12:39:28.339Z,6.60
2023-02-15T12:42:02.917Z,3.30
2023-02-15T12:44:33.954Z,5.30
2023-02-15T12:47:05.541Z,3.00
2023-02-15T12:49:37.882Z,5.00
2023-02-15T12:52:24.130Z,3.70
2023-02-15T12:54:54.182Z,5.40
2023-02-15T12:57:36.590Z,2.80
2023-02-15T13:00:12.949Z,3.40
2023-02-15T13:02:48.348Z,3.60
2023-02-15T13:05:23.948Z,5.00
2023-02-15T13:07:56.315Z,4.90
2023-02-15T13:10:59.505Z,3.10
2023-02-15T13:13:32.483Z,2.40
2023-02-15T13:16:03.043Z,2.60
2023-02-15T13:18:35.245Z,3.60
2023-02-15T13:21:11.063Z,2.50
2023-02-15T13:23:42.395Z,2.80
2023-02-15T13:26:15.820Z,3.70
2023-02-15T13:28:47.838Z,1.90
2023-02-15T13:31:18.867Z,2.20
2023-02-15T13:33:52.254Z,9.10
2023-02-15T13:36:26.963Z,4.50
2023-02-15T13:39:08.849Z,2.90
2023-02-15T13:41:54.620Z,6.30
2023-02-15T13:44:30.985Z,3.40
2023-02-15T13:47:10.842Z,2.80
2023-02-15T13:49:49.473Z,3.60
2023-02-15T13:52:22.980Z,3.40
2023-02-15T13:55:15.260Z,3.10
2023-02-15T13:58:03.408Z,3.50
2023-02-15T14:00:48.525Z,4.60
2023-02-15T14:03:43.404Z,3.30
2023-02-15T14:06:20.960Z,5.20
2023-02-15T14:09:02.300Z,2.00
2023-02-15T14:11:38.474Z,5.10
2023-02-15T14:14:47.329Z,1.80
2023-02-15T14:17:23.884Z,2.90
2023-02-15T14:20:01.134Z,2.80
2023-02-15T14:22:35.255Z,3.80
2023-02-15T14:25:20.119Z,3.50
2023-02-15T14:28:00.372Z,7.30
2023-02-15T14:30:32.540Z,5.10
2023-02-15T14:33:07.615Z,1.90
2023-02-15T14:35:37.518Z,2.90
2023-02-15T14:38:14.523Z,4.10
2023-02-15T14:41:02.271Z,4.70
2023-02-15T14:43:42.026Z,3.20
2023-02-15T14:46:20.730Z,2.40
2023-02-15T14:48:52.399Z,2.60
2023-02-15T14:51:58.434Z,1.80
2023-02-15T14:54:57.041Z,2.10
2023-02-15T14:57:28.717Z,5.40
2023-02-15T14:59:59.940Z,4.50
2023-02-15T15:02:40.779Z,2.60
2023-02-15T15:05:16.766Z,2.40
2023-02-15T15:07:48.463Z,10.40
2023-02-15T15:10:41.791Z,5.00
2023-02-15T15:13:53.994Z,2.20
2023-02-15T15:16:31.388Z,2.80
2023-02-15T15:19:02.473Z,4.30
2023-02-15T15:21:58.799Z,7.10
2023-02-15T15:24:54.759Z,8.90
2023-02-15T15:27:44.328Z,4.30
2023-02-15T15:30:54.905Z,3.70
2023-02-15T15:33:55.998Z,9.80
2023-02-15T15:36:56.453Z,3.70
2023-02-15T15:40:08.863Z,5.20
2023-02-15T15:42:50.032Z,7.90
2023-02-15T15:45:38.509Z,12.80
2023-02-15T15:48:32.896Z,11.60
2023-02-15T15:51:26.652Z,12.80
2023-02-15T15:53:56.525Z,9.90
2023-02-15T15:56:30.241Z,7.10
2023-02-15T15:59:01.663Z,5.70
2023-02-15T16:01:35.071Z,6.80
2023-02-15T16:04:04.423Z,5.20
2023-02-15T16:06:36.596Z,3.50
2023-02-15T16:09:20.900Z,3.50
2023-02-15T16:11:52.291Z,7.20
2023-02-15T16:14:27.646Z,5.00
2023-02-15T16:16:58.800Z,7.20
2023-02-15T16:19:30.606Z,7.90
2023-02-15T16:22:01.172Z,13.50
2023-02-15T16:24:46.438Z,36.40
2023-02-15T16:27:35.414Z,13.40
2023-02-15T16:30:26.154Z,14.50
2023-02-15T16:32:57.095Z,8.90
2023-02-15T16:35:26.352Z,20.10
2023-02-15T16:37:55.787Z,25.10
2023-02-15T16:40:42.876Z,22.20
2023-02-15T16:43:19.552Z,26.80
2023-02-15T16:45:51.028Z,17.10
2023-02-15T16:48:22.872Z,26.70
2023-02-15T16:50:56.058Z,21.00
2023-02-15T16:53:27.543Z,9.70
2023-02-15T16:55:58.253Z,15.90
2023-02-15T16:58:37.064Z,16.50
2023-02-15T17:01:09.741Z,16.90
2023-02-15T17:03:39.329Z,9.50
2023-02-15T17:06:22.576Z,10.90
2023-02-15T17:08:55.411Z,10.20
2023-02-15T17:11:35.783Z,10.60
2023-02-15T17:14:22.488Z,22.60
2023-02-15T17:17:00.920Z,13.40
2023-02-15T17:19:31.717Z,15.70
2023-02-15T17:22:02.205Z,20.60
2023-02-15T17:24:36.987Z,27.00
2023-02-15T17:27:31.423Z,27.60
2023-02-15T17:30:03.463Z,15.50
2023-02-15T17:32:34.835Z,15.90
2023-02-15T17:35:19.764Z,15.10
2023-02-15T17:37:50.118Z,53.00
2023-02-15T17:40:24.867Z,17.40
2023-02-15T17:45:35.132Z,13.40
2023-02-15T17:48:16.004Z,13.20
2023-02-15T17:50:45.434Z,15.20
2023-02-15T17:53:16.997Z,10.00
2023-02-15T17:55:46.578Z,8.20
2023-02-15T17:58:18.729Z,10.40
2023-02-15T18:01:08.839Z,16.80
2023-02-15T18:04:01.330Z,11.60
2023-02-15T18:06:49.433Z,9.70
2023-02-15T18:09:38.386Z,11.90
2023-02-15T18:12:20.206Z,7.60
2023-02-15T18:14:50.079Z,10.30
2023-02-15T18:17:19.710Z,15.90
2023-02-15T18:19:49.255Z,15.50
2023-02-15T18:22:27.971Z,10.70
2023-02-15T18:24:57.260Z,7.50
2023-02-15T18:27:26.722Z,9.60
2023-02-15T18:29:56.285Z,12.40
2023-02-15T18:32:32.366Z,12.90
2023-02-15T18:35:03.104Z,10.30
2023-02-15T18:37:32.999Z,10.70
2023-02-15T18:40:03.887Z,11.50
2023-02-15T18:42:34.640Z,34.60
2023-02-15T18:45:15.775Z,10.00
2023-02-15T18:47:45.126Z,10.70
2023-02-15T18:50:15.032Z,9.50
2023-02-15T18:52:46.530Z,11.50
2023-02-15T18:55:33.626Z,11.60
2023-02-15T19:07:57.961Z,18.50
2023-02-15T19:11:03.994Z,18.50
2023-02-15T19:16:41.941Z,14.90
2023-02-15T19:26:20.838Z,23.20
2023-02-15T19:28:51.327Z,15.80
2023-02-15T19:31:38.914Z,15.20
2023-02-15T19:34:43.550Z,18.40
2023-02-15T19:37:35.203Z,22.40
2023-02-15T19:40:23.368Z,21.60
2023-02-15T19:48:46.500Z,19.30
2023-02-15T19:52:04.149Z,21.00
2023-02-15T20:04:57.162Z,18.70
2023-02-15T20:10:54.049Z,18.20
2023-02-15T20:19:29.655Z,17.00
2023-02-15T20:25:20.204Z,17.50
2023-02-15T20:31:48.644Z,15.50
2023-02-15T20:37:49.604Z,20.00
2023-02-15T20:47:16.623Z,22.20
2023-02-15T20:56:33.809Z,24.80
2023-02-15T21:03:09.317Z,22.10
2023-02-15T21:12:35.573Z,25.10
2023-02-15T21:15:51.377Z,21.40
2023-02-15T21:19:18.289Z,23.50
2023-02-15T21:22:17.520Z,22.70
2023-02-15T21:25:30.358Z,23.30
2023-02-15T21:35:11.945Z,20.30
2023-02-15T21:58:13.399Z,26.10
2023-02-15T22:01:18.829Z,28.30
2023-02-15T22:04:34.884Z,26.30
2023-02-15T22:23:31.362Z,24.20
2023-02-15T22:26:45.727Z,25.70
2023-02-15T22:33:00.113Z,28.90
2023-02-15T22:35:48.401Z,21.40
